KRBD/RBD METAR and TAF weather

Enter ICAO airport designator
Station Type Date Time Source
KRBD METAR 2022/12/04 11:53 UTC NOAA

KRBD 041153Z AUTO 05004KT 10SM OVC055 08/M01 A3030 RMK AO2 SLP260 T00831011 10100 20083 58016


Station Type Date Time Source
KRBD Decoded METAR 2022/12/04 11:53 UTC NOAA

DALLAS EXECUTIVE AIRPORT, TX, United States (KRBD) 32-41N 096-52W 203M
Dec 04, 2022 - 06:53 AM EST / 2022.12.04 1153 UTC
Wind: from the NE (050 degrees) at 5 MPH (4 KT):0
Visibility: 10 mile(s):0
Sky conditions: overcast
Temperature: 46.9 F (8.3 C)
Dew Point: 30.0 F (-1.1 C)
Relative Humidity: 51%
Pressure (altimeter): 30.3 in. Hg (1026 hPa)
Pressure tendency: 0.05 inches (1.6 hPa) lower than three hours ago
ob: KRBD 041153Z AUTO 05004KT 10SM OVC055 08/M01 A3030 RMK AO2 SLP260 T00831011 10100 20083 58016
cycle: 12

Station Type Date Time Source
KRBD TAF UTC NOAA

Error!

Example: see airport list